Time;durP1;ratioP1;P1;durP2;ratioP2;P2;SDS_P1;SDS_P2;PMS_P1;PMS_P2;Temp;Humidity;BMP_temperature;BMP_pressure;BME280_temperature;BME280_humidity;BME280_pressure;Samples;Min_cycle;Max_cycle;Signal;HPM_P1;HPM_P2
2023/03/01 00:01:03;;;;;;;;;;;2.10;8.34;;;;;;2672748;76;20375;-90
2023/03/01 00:04:31;;;;;;;;;;;2.10;8.40;;;;;;2671723;76;20362;-90
2023/03/01 00:07:59;;;;;;;;;;;2.11;8.45;;;;;;2678991;76;20312;-92
2023/03/01 00:11:27;;;;;;;;;;;2.11;8.32;;;;;;2676436;76;20339;-90
2023/03/01 00:14:55;;;;;;;;;;;2.09;8.33;;;;;;2672183;76;20819;-90
2023/03/01 00:18:23;;;;;;;;;;;2.09;8.26;;;;;;2672506;76;20348;-90
2023/03/01 00:21:52;;;;;;;;;;;2.11;8.40;;;;;;2671888;76;20821;-91
2023/03/01 00:25:20;;;;;;;;;;;2.11;8.50;;;;;;2672518;76;20768;-91
2023/03/01 00:28:48;;;;;;;;;;;2.07;8.34;;;;;;2672407;76;20340;-91
2023/03/01 00:32:16;;;;;;;;;;;2.11;8.43;;;;;;2671801;76;20341;-91
2023/03/01 00:35:44;;;;;;;;;;;2.09;8.37;;;;;;2672544;76;20363;-92
2023/03/01 00:39:12;;;;;;;;;;;2.03;8.29;;;;;;2673054;76;20345;-91
2023/03/01 00:42:41;;;;;;;;;;;2.05;8.35;;;;;;2672092;76;20348;-91
2023/03/01 00:46:09;;;;;;;;;;;2.03;8.45;;;;;;2672277;76;20343;-91
2023/03/01 00:49:37;;;;;;;;;;;2.06;8.47;;;;;;2672316;76;20369;-91
2023/03/01 00:53:05;;;;;;;;;;;2.05;8.35;;;;;;2673079;76;20316;-91
2023/03/01 00:56:33;;;;;;;;;;;2.01;8.23;;;;;;2672952;76;20301;-90
2023/03/01 01:00:01;;;;;;;;;;;2.03;8.24;;;;;;2672304;76;20404;-91
2023/03/01 01:03:29;;;;;;;;;;;2.03;8.27;;;;;;2672605;76;20487;-89
2023/03/01 01:06:57;;;;;;;;;;;2.00;8.21;;;;;;2672438;76;20345;-90
2023/03/01 01:10:25;;;;;;;;;;;2.06;8.33;;;;;;2672702;76;20335;-91
2023/03/01 01:13:53;;;;;;;;;;;2.06;8.21;;;;;;2672698;76;20348;-90
2023/03/01 01:17:21;;;;;;;;;;;2.01;8.24;;;;;;2672422;76;20402;-90
2023/03/01 01:20:49;;;;;;;;;;;2.02;8.29;;;;;;2671856;76;20365;-90
2023/03/01 01:24:18;;;;;;;;;;;2.00;8.08;;;;;;2672596;76;20359;-91
2023/03/01 01:27:46;;;;;;;;;;;1.98;8.00;;;;;;2671918;76;20346;-90
2023/03/01 01:31:19;;;;;;;;;;;1.96;7.77;;;;;;2671574;76;20799;-91
2023/03/01 01:34:44;;;;;;;;;;;1.98;7.87;;;;;;2672836;76;20792;-90
2023/03/01 01:38:12;;;;;;;;;;;2.01;7.94;;;;;;2672350;76;20560;-91
2023/03/01 01:41:41;;;;;;;;;;;2.02;7.95;;;;;;2673100;76;20306;-91
2023/03/01 01:45:09;;;;;;;;;;;1.94;7.85;;;;;;2672497;76;20813;-90
2023/03/01 01:48:40;;;;;;;;;;;2.00;7.91;;;;;;2671849;76;20751;-90
2023/03/01 01:52:07;;;;;;;;;;;1.98;7.96;;;;;;2673014;76;20455;-91
2023/03/01 01:55:35;;;;;;;;;;;1.98;7.90;;;;;;2672833;76;20341;-91
2023/03/01 01:59:03;;;;;;;;;;;1.98;7.97;;;;;;2671767;76;20310;-91
2023/03/01 02:02:31;;;;;;;;;;;1.98;8.01;;;;;;2670719;76;20359;-91
2023/03/01 02:05:59;;;;;;;;;;;1.98;7.82;;;;;;2672527;76;20338;-91
2023/03/01 02:09:28;;;;;;;;;;;1.99;7.90;;;;;;2672657;76;20333;-91
2023/03/01 02:12:56;;;;;;;;;;;2.02;7.95;;;;;;2672567;76;20317;-90
2023/03/01 02:16:24;;;;;;;;;;;1.98;7.92;;;;;;2671966;76;20330;-91
2023/03/01 02:19:52;;;;;;;;;;;1.90;7.63;;;;;;2672700;76;20379;-91
2023/03/01 02:23:20;;;;;;;;;;;1.86;7.48;;;;;;2672590;76;20322;-91
2023/03/01 02:26:48;;;;;;;;;;;1.93;7.63;;;;;;2671724;76;20390;-91
2023/03/01 02:30:16;;;;;;;;;;;1.94;7.65;;;;;;2672325;76;20693;-91
2023/03/01 02:33:44;;;;;;;;;;;1.87;7.26;;;;;;2671491;76;20795;-91
2023/03/01 02:37:12;;;;;;;;;;;1.85;7.25;;;;;;2672723;76;20351;-91
2023/03/01 02:40:40;;;;;;;;;;;1.86;7.21;;;;;;2672059;76;20324;-91
2023/03/01 02:44:13;;;;;;;;;;;1.82;6.89;;;;;;2672909;76;20331;-91
2023/03/01 02:47:38;;;;;;;;;;;1.77;6.56;;;;;;2671887;76;20331;-91
2023/03/01 02:51:06;;;;;;;;;;;1.71;6.25;;;;;;2672024;76;20371;-91
2023/03/01 02:54:35;;;;;;;;;;;1.79;6.27;;;;;;2672908;76;20329;-91
2023/03/01 02:58:04;;;;;;;;;;;1.80;6.24;;;;;;2672426;76;20345;-91
2023/03/01 03:01:38;;;;;;;;;;;1.85;6.32;;;;;;2671390;76;20428;-91
2023/03/01 03:05:08;;;;;;;;;;;1.87;6.35;;;;;;2671799;76;20353;-91
2023/03/01 03:08:36;;;;;;;;;;;1.78;6.29;;;;;;2673943;76;20934;-91
2023/03/01 03:12:04;;;;;;;;;;;1.84;6.45;;;;;;2673228;76;20788;-90
2023/03/01 03:15:35;;;;;;;;;;;1.80;6.41;;;;;;2673498;76;20625;-91
2023/03/01 03:19:04;;;;;;;;;;;1.76;6.40;;;;;;2672965;76;20739;-90
2023/03/01 03:22:31;;;;;;;;;;;1.80;6.63;;;;;;2672869;76;20326;-90
2023/03/01 03:25:59;;;;;;;;;;;1.81;6.63;;;;;;2673234;76;20309;-90
2023/03/01 03:29:27;;;;;;;;;;;1.73;6.56;;;;;;2672983;76;20338;-90
2023/03/01 03:32:55;;;;;;;;;;;1.73;6.54;;;;;;2673098;76;20645;-90
2023/03/01 03:36:24;;;;;;;;;;;1.65;6.41;;;;;;2672743;76;20322;-91
2023/03/01 03:39:54;;;;;;;;;;;1.62;6.44;;;;;;2673094;76;20327;-90
2023/03/01 03:43:21;;;;;;;;;;;1.64;6.38;;;;;;2673192;76;20318;-90
2023/03/01 03:46:49;;;;;;;;;;;1.62;6.37;;;;;;2673673;76;20320;-91
2023/03/01 03:50:17;;;;;;;;;;;1.56;6.27;;;;;;2673147;76;20368;-91
2023/03/01 03:53:45;;;;;;;;;;;1.60;6.38;;;;;;2672657;76;20858;-91
2023/03/01 03:57:14;;;;;;;;;;;1.56;6.38;;;;;;2673135;76;20342;-90
2023/03/01 04:00:42;;;;;;;;;;;1.55;6.37;;;;;;2673159;76;20374;-90
2023/03/01 04:04:10;;;;;;;;;;;1.53;6.18;;;;;;2672447;76;20753;-90
2023/03/01 04:07:38;;;;;;;;;;;1.36;6.03;;;;;;2672514;76;20828;-91
2023/03/01 04:14:53;;;;;;;;;;;1.14;5.88;;;;;;2672592;76;20327;-90
2023/03/01 04:18:21;;;;;;;;;;;0.97;5.69;;;;;;2672789;76;20339;-90
2023/03/01 04:21:49;;;;;;;;;;;0.81;5.54;;;;;;2671799;76;20368;-90
2023/03/01 04:25:17;;;;;;;;;;;0.65;5.45;;;;;;2671887;76;20832;-90
2023/03/01 04:28:47;;;;;;;;;;;0.50;5.30;;;;;;2672511;76;20335;-91
2023/03/01 04:32:16;;;;;;;;;;;0.32;5.30;;;;;;2672469;76;20512;-92
2023/03/01 04:35:44;;;;;;;;;;;0.17;5.25;;;;;;2672306;76;20372;-90
2023/03/01 04:39:12;;;;;;;;;;;0.05;5.44;;;;;;2671584;76;20318;-91
2023/03/01 04:42:40;;;;;;;;;;;-0.01;5.55;;;;;;2672316;76;20333;-90
2023/03/01 04:46:09;;;;;;;;;;;-0.11;5.43;;;;;;2673165;76;20334;-91
2023/03/01 04:49:37;;;;;;;;;;;-0.12;5.57;;;;;;2671751;76;20372;-91
2023/03/01 04:53:05;;;;;;;;;;;-0.21;5.49;;;;;;2671891;76;20372;-88
2023/03/01 04:56:33;;;;;;;;;;;-0.23;5.44;;;;;;2672367;76;20350;-88
2023/03/01 05:00:02;;;;;;;;;;;-0.29;5.46;;;;;;2672200;76;20393;-88
2023/03/01 05:03:31;;;;;;;;;;;-0.31;5.58;;;;;;2673023;76;20336;-87
2023/03/01 05:06:59;;;;;;;;;;;-0.31;5.65;;;;;;2671922;76;20328;-88
2023/03/01 05:10:28;;;;;;;;;;;-0.41;5.67;;;;;;2671907;76;20328;-88
2023/03/01 05:13:56;;;;;;;;;;;-0.39;5.75;;;;;;2672246;76;20398;-88
2023/03/01 05:17:25;;;;;;;;;;;-0.50;5.71;;;;;;2671813;76;20375;-87
2023/03/01 05:20:56;;;;;;;;;;;-0.53;5.78;;;;;;2671376;76;20318;-88
2023/03/01 05:24:22;;;;;;;;;;;-0.55;5.92;;;;;;2672622;76;20351;-88
2023/03/01 05:27:51;;;;;;;;;;;-0.51;6.14;;;;;;2670821;76;20374;-87
2023/03/01 05:31:19;;;;;;;;;;;-0.41;6.52;;;;;;2672115;76;20361;-87
2023/03/01 05:34:47;;;;;;;;;;;-0.35;6.73;;;;;;2672440;76;20331;-87
2023/03/01 05:38:15;;;;;;;;;;;-0.26;6.81;;;;;;2670405;76;20390;-88
2023/03/01 05:41:43;;;;;;;;;;;-0.08;6.89;;;;;;2672448;76;20332;-88
2023/03/01 05:45:12;;;;;;;;;;;-0.00;6.91;;;;;;2671302;76;20353;-87
2023/03/01 05:48:40;;;;;;;;;;;0.12;7.00;;;;;;2672249;76;20334;-87
2023/03/01 05:52:08;;;;;;;;;;;0.25;7.08;;;;;;2671862;76;20330;-88
2023/03/01 05:55:36;;;;;;;;;;;0.36;7.05;;;;;;2671952;76;20782;-87
2023/03/01 05:59:04;;;;;;;;;;;0.39;6.88;;;;;;2671645;76;20787;-87
2023/03/01 06:02:32;;;;;;;;;;;0.47;6.84;;;;;;2671825;76;20332;-87
2023/03/01 06:06:01;;;;;;;;;;;0.55;6.92;;;;;;2670804;76;20352;-88
2023/03/01 06:09:30;;;;;;;;;;;0.66;6.79;;;;;;2670557;76;20374;-88
2023/03/01 06:12:58;;;;;;;;;;;0.72;6.70;;;;;;2671251;76;20335;-88
2023/03/01 06:16:26;;;;;;;;;;;0.78;6.63;;;;;;2670691;76;20790;-88
2023/03/01 06:19:54;;;;;;;;;;;0.75;6.41;;;;;;2672717;76;20779;-88
2023/03/01 06:23:22;;;;;;;;;;;0.76;6.20;;;;;;2671857;76;20766;-88
2023/03/01 06:26:50;;;;;;;;;;;0.78;6.01;;;;;;2673562;76;20712;-88
2023/03/01 06:30:18;;;;;;;;;;;0.87;5.97;;;;;;2672255;76;20338;-87
2023/03/01 06:33:46;;;;;;;;;;;0.94;5.79;;;;;;2670952;76;20356;-87
2023/03/01 06:37:14;;;;;;;;;;;1.08;5.86;;;;;;2670457;76;20372;-88
2023/03/01 06:40:42;;;;;;;;;;;1.12;5.67;;;;;;2669481;76;20541;-88
2023/03/01 06:44:10;;;;;;;;;;;1.14;5.44;;;;;;2672088;76;20389;-87
2023/03/01 06:47:39;;;;;;;;;;;1.21;5.31;;;;;;2672512;76;20325;-88
2023/03/01 06:51:07;;;;;;;;;;;1.28;5.36;;;;;;2671853;76;20339;-88
2023/03/01 06:54:35;;;;;;;;;;;1.34;5.22;;;;;;2672880;76;20340;-88
2023/03/01 06:58:03;;;;;;;;;;;1.33;4.87;;;;;;2672271;76;20347;-87
2023/03/01 07:01:31;;;;;;;;;;;1.39;4.82;;;;;;2671242;76;20328;-88
2023/03/01 07:04:59;;;;;;;;;;;1.56;4.92;;;;;;2672081;76;20331;-88
2023/03/01 07:08:27;;;;;;;;;;;1.61;4.70;;;;;;2672449;76;20350;-88
2023/03/01 07:11:55;;;;;;;;;;;1.76;4.75;;;;;;2669901;76;20407;-89
2023/03/01 07:15:23;;;;;;;;;;;1.68;4.19;;;;;;2671518;76;20386;-88
2023/03/01 07:18:51;;;;;;;;;;;1.72;4.02;;;;;;2671123;76;20794;-88
2023/03/01 07:22:20;;;;;;;;;;;1.80;3.70;;;;;;2672475;76;20322;-88
2023/03/01 07:25:48;;;;;;;;;;;1.72;3.25;;;;;;2673758;76;20433;-89
2023/03/01 07:29:16;;;;;;;;;;;1.79;2.83;;;;;;2674238;76;20818;-89
2023/03/01 07:32:45;;;;;;;;;;;2.06;3.08;;;;;;2672272;76;20805;-88
2023/03/01 07:36:13;;;;;;;;;;;2.23;2.77;;;;;;2672090;76;20331;-88
2023/03/01 07:39:41;;;;;;;;;;;2.38;2.36;;;;;;2670825;76;20656;-88
2023/03/01 07:43:09;;;;;;;;;;;2.47;1.80;;;;;;2672314;76;20343;-88
2023/03/01 07:46:37;;;;;;;;;;;2.62;1.60;;;;;;2672546;76;20679;-89
2023/03/01 07:50:05;;;;;;;;;;;2.54;0.67;;;;;;2671631;76;20851;-88
2023/03/01 07:53:33;;;;;;;;;;;2.60;0.24;;;;;;2672552;76;20365;-88
2023/03/01 07:57:02;;;;;;;;;;;2.74;0.00;;;;;;2672208;76;20377;-88
2023/03/01 08:00:30;;;;;;;;;;;2.88;-0.19;;;;;;2673081;76;20378;-89
2023/03/01 08:03:58;;;;;;;;;;;3.10;-0.42;;;;;;2672542;76;20435;-88
2023/03/01 08:07:26;;;;;;;;;;;3.13;-1.07;;;;;;2672033;76;20356;-89
2023/03/01 08:10:54;;;;;;;;;;;3.14;-1.57;;;;;;2672452;76;20332;-89
2023/03/01 08:14:22;;;;;;;;;;;3.16;-2.15;;;;;;2672343;76;20673;-88
2023/03/01 08:17:50;;;;;;;;;;;3.18;-2.67;;;;;;2671575;76;20373;-89
2023/03/01 08:21:18;;;;;;;;;;;3.39;-2.99;;;;;;2673190;76;20320;-88
2023/03/01 08:24:46;;;;;;;;;;;3.41;-3.30;;;;;;2673513;76;20820;-88
2023/03/01 08:28:14;;;;;;;;;;;3.58;-3.40;;;;;;2671881;76;20355;-89
2023/03/01 08:31:43;;;;;;;;;;;3.86;-3.08;;;;;;2672097;76;20350;-89
2023/03/01 08:35:11;;;;;;;;;;;4.10;-3.13;;;;;;2672788;76;20771;-89
2023/03/01 08:38:39;;;;;;;;;;;4.34;-3.44;;;;;;2671465;76;20382;-89
2023/03/01 08:42:07;;;;;;;;;;;4.32;-4.26;;;;;;2672838;76;20320;-89
2023/03/01 08:45:35;;;;;;;;;;;4.07;-5.20;;;;;;2673069;76;20341;-89
2023/03/01 08:49:03;;;;;;;;;;;4.15;-5.18;;;;;;2672321;76;20371;-88
2023/03/01 08:52:31;;;;;;;;;;;4.12;-5.40;;;;;;2672345;76;20414;-89
2023/03/01 08:55:59;;;;;;;;;;;4.07;-5.39;;;;;;2672472;76;20336;-89
2023/03/01 08:59:29;;;;;;;;;;;4.07;-5.31;;;;;;2672385;76;20383;-89
2023/03/01 09:02:57;;;;;;;;;;;4.24;-4.92;;;;;;2673065;76;20528;-89
2023/03/01 09:06:25;;;;;;;;;;;4.38;-4.95;;;;;;2672001;76;20360;-89
2023/03/01 09:09:53;;;;;;;;;;;4.57;-5.24;;;;;;2672294;76;20335;-89
2023/03/01 09:13:24;;;;;;;;;;;4.33;-5.67;;;;;;2672895;76;20829;-89
2023/03/01 09:16:51;;;;;;;;;;;4.64;-5.22;;;;;;2672524;76;20693;-89
2023/03/01 09:20:21;;;;;;;;;;;4.71;-5.27;;;;;;2671309;76;20376;-88
2023/03/01 09:23:49;;;;;;;;;;;4.54;-5.70;;;;;;2672916;76;20349;-89
2023/03/01 09:27:18;;;;;;;;;;;4.83;-5.63;;;;;;2672249;76;20357;-89
2023/03/01 09:30:46;;;;;;;;;;;5.05;-5.70;;;;;;2671971;76;20824;-89
2023/03/01 09:34:18;;;;;;;;;;;5.18;-5.82;;;;;;2671622;76;20368;-89
2023/03/01 09:37:45;;;;;;;;;;;5.11;-5.85;;;;;;2672739;76;20334;-90
2023/03/01 09:41:13;;;;;;;;;;;4.89;118.92;;;;;;2672449;76;20799;-89
2023/03/01 09:44:41;;;;;;;;;;;4.64;-5.83;;;;;;2672634;76;20336;-90
2023/03/01 09:48:09;;;;;;;;;;;4.09;-5.66;;;;;;2672493;76;20340;-89
2023/03/01 09:51:42;;;;;;;;;;;3.88;-5.05;;;;;;2671992;76;20340;-89
2023/03/01 09:55:07;;;;;;;;;;;3.77;-4.41;;;;;;2672294;76;20648;-89
2023/03/01 09:58:36;;;;;;;;;;;3.94;-4.37;;;;;;2671999;76;20342;-89
2023/03/01 10:02:04;;;;;;;;;;;3.82;-4.73;;;;;;2672214;76;20353;-89
2023/03/01 10:05:33;;;;;;;;;;;4.04;-4.53;;;;;;2672012;76;20338;-89
2023/03/01 10:09:01;;;;;;;;;;;3.93;-4.41;;;;;;2671705;76;20342;-89
2023/03/01 10:12:29;;;;;;;;;;;3.88;-4.34;;;;;;2672770;76;20776;-88
2023/03/01 10:15:57;;;;;;;;;;;3.75;-4.08;;;;;;2672537;76;20774;-89
2023/03/01 10:19:25;;;;;;;;;;;3.78;-4.01;;;;;;2671553;76;20771;-89
2023/03/01 10:22:55;;;;;;;;;;;3.64;-4.05;;;;;;2672293;76;20773;-89
2023/03/01 10:26:25;;;;;;;;;;;3.57;-3.92;;;;;;2671959;76;20332;-88
2023/03/01 10:29:53;;;;;;;;;;;3.73;-3.85;;;;;;2672315;76;20323;-89
2023/03/01 10:33:21;;;;;;;;;;;3.90;-3.70;;;;;;2672375;76;20324;-89
2023/03/01 10:36:49;;;;;;;;;;;4.30;-3.59;;;;;;2671115;76;20381;-89
2023/03/01 10:40:18;;;;;;;;;;;4.28;-3.99;;;;;;2672213;76;20360;-89
2023/03/01 10:43:47;;;;;;;;;;;4.41;-4.48;;;;;;2672741;76;20396;-89
2023/03/01 10:47:15;;;;;;;;;;;4.57;-4.63;;;;;;2672440;76;20331;-89
2023/03/01 10:50:43;;;;;;;;;;;4.60;-4.83;;;;;;2672267;76;20343;-89
2023/03/01 10:54:14;;;;;;;;;;;4.68;-4.71;;;;;;2671166;76;20354;-91
2023/03/01 10:57:42;;;;;;;;;;;4.72;-4.46;;;;;;2670663;76;20375;-90
2023/03/01 11:01:10;;;;;;;;;;;4.87;-4.48;;;;;;2671823;76;20365;-91
2023/03/01 11:04:38;;;;;;;;;;;4.82;-4.89;;;;;;2671614;76;20811;-91
2023/03/01 11:08:06;;;;;;;;;;;5.07;-4.89;;;;;;2672068;76;20832;-90
2023/03/01 11:11:34;;;;;;;;;;;4.76;-5.27;;;;;;2673118;76;20817;-91
2023/03/01 11:15:02;;;;;;;;;;;4.78;-4.81;;;;;;2672517;76;20844;-91
2023/03/01 11:18:30;;;;;;;;;;;4.79;-4.33;;;;;;2672299;76;20376;-91
2023/03/01 11:21:59;;;;;;;;;;;4.81;-3.81;;;;;;2672083;76;20334;-91
2023/03/01 11:25:27;;;;;;;;;;;4.88;-3.33;;;;;;2673138;76;20367;-91
2023/03/01 11:28:55;;;;;;;;;;;5.04;-3.09;;;;;;2672037;76;20347;-92
2023/03/01 11:32:23;;;;;;;;;;;4.94;-3.54;;;;;;2672178;76;20391;-91
2023/03/01 11:35:51;;;;;;;;;;;5.01;-3.66;;;;;;2672141;76;20336;-91
2023/03/01 11:39:19;;;;;;;;;;;5.05;-3.49;;;;;;2672708;76;20343;-91
2023/03/01 11:42:47;;;;;;;;;;;5.18;-3.08;;;;;;2671279;76;20330;-92
2023/03/01 11:46:15;;;;;;;;;;;5.16;-3.04;;;;;;2672481;76;20320;-91
2023/03/01 11:49:44;;;;;;;;;;;5.19;-3.02;;;;;;2672702;76;20361;-91
2023/03/01 11:53:12;;;;;;;;;;;5.10;-3.16;;;;;;2673101;76;20325;-91
2023/03/01 11:56:40;;;;;;;;;;;5.08;-3.34;;;;;;2672141;76;20516;-91
2023/03/01 12:00:08;;;;;;;;;;;5.19;-3.53;;;;;;2672441;76;20353;-91
2023/03/01 12:03:36;;;;;;;;;;;5.12;-3.66;;;;;;2674280;76;20819;-91
2023/03/01 12:07:04;;;;;;;;;;;5.24;-3.24;;;;;;2674451;76;20379;-91
2023/03/01 12:10:33;;;;;;;;;;;5.17;-3.10;;;;;;2673969;76;22823;-91
2023/03/01 12:14:02;;;;;;;;;;;5.18;-2.84;;;;;;2673823;76;20376;-91
2023/03/01 12:17:30;;;;;;;;;;;5.27;-2.77;;;;;;2674220;76;20354;-91
2023/03/01 12:20:59;;;;;;;;;;;5.37;-2.46;;;;;;2673658;76;20341;-92
2023/03/01 12:24:27;;;;;;;;;;;5.47;-2.03;;;;;;2673873;76;20342;-91
2023/03/01 12:27:55;;;;;;;;;;;5.48;-2.25;;;;;;2673856;76;20366;-92
2023/03/01 12:31:27;;;;;;;;;;;5.57;-2.36;;;;;;2673491;76;20410;-92
2023/03/01 12:34:53;;;;;;;;;;;5.56;-2.56;;;;;;2673791;76;20349;-91
2023/03/01 12:38:26;;;;;;;;;;;5.53;-2.64;;;;;;2673540;76;20320;-92
2023/03/01 12:41:51;;;;;;;;;;;5.75;-2.21;;;;;;2674520;76;20361;-92
2023/03/01 12:45:19;;;;;;;;;;;5.60;-2.46;;;;;;2674008;76;20337;-91
2023/03/01 12:48:48;;;;;;;;;;;5.76;-2.70;;;;;;2673848;76;20346;-92
2023/03/01 12:52:16;;;;;;;;;;;5.77;-2.95;;;;;;2672502;76;20331;-93
2023/03/01 12:55:46;;;;;;;;;;;5.70;-2.81;;;;;;2673297;76;20385;-91
2023/03/01 12:59:14;;;;;;;;;;;5.84;-2.49;;;;;;2674031;76;20372;-92
2023/03/01 13:02:42;;;;;;;;;;;5.94;-2.14;;;;;;2673820;76;21066;-92
2023/03/01 13:06:10;;;;;;;;;;;6.04;-1.73;;;;;;2673764;76;20362;-92
2023/03/01 13:09:38;;;;;;;;;;;5.96;-2.12;;;;;;2673781;76;20408;-92
2023/03/01 13:13:06;;;;;;;;;;;5.97;-2.37;;;;;;2674366;76;20333;-92
2023/03/01 13:16:35;;;;;;;;;;;6.16;-2.38;;;;;;2674016;76;20335;-92
2023/03/01 13:20:03;;;;;;;;;;;6.06;-2.45;;;;;;2673911;76;20398;-92
2023/03/01 13:23:31;;;;;;;;;;;6.10;-2.52;;;;;;2674110;76;20341;-91
2023/03/01 13:27:03;;;;;;;;;;;6.22;-2.37;;;;;;2673576;76;20663;-92
2023/03/01 13:30:31;;;;;;;;;;;6.23;-2.14;;;;;;2673931;76;20326;-93
2023/03/01 13:33:59;;;;;;;;;;;6.17;-1.90;;;;;;2673262;76;20323;-92
2023/03/01 13:37:29;;;;;;;;;;;6.20;-1.37;;;;;;2673573;76;20387;-92
2023/03/01 13:40:57;;;;;;;;;;;6.16;-1.48;;;;;;2674313;76;20429;-93
2023/03/01 13:44:26;;;;;;;;;;;6.27;-1.61;;;;;;2673835;76;20793;-92
2023/03/01 13:47:54;;;;;;;;;;;6.28;-1.45;;;;;;2673677;76;20352;-92
2023/03/01 13:51:22;;;;;;;;;;;6.30;-1.29;;;;;;2673900;76;20334;-92
2023/03/01 13:54:50;;;;;;;;;;;6.37;-0.96;;;;;;2673496;76;20331;-92
2023/03/01 13:58:19;;;;;;;;;;;6.33;-0.95;;;;;;2673851;76;20358;-93
2023/03/01 14:01:47;;;;;;;;;;;6.46;-0.62;;;;;;2673870;76;20316;-93
2023/03/01 14:05:18;;;;;;;;;;;6.38;-0.98;;;;;;2673961;76;20348;-92
2023/03/01 14:08:46;;;;;;;;;;;6.56;-0.74;;;;;;2674243;76;20331;-93
2023/03/01 14:12:14;;;;;;;;;;;6.57;-0.90;;;;;;2674344;76;20355;-93
2023/03/01 14:15:42;;;;;;;;;;;6.58;-1.04;;;;;;2674568;76;20326;-93
2023/03/01 14:19:10;;;;;;;;;;;6.72;-0.90;;;;;;2677415;76;20308;-93
2023/03/01 14:22:39;;;;;;;;;;;6.69;-1.03;;;;;;2682844;76;20344;-95
2023/03/01 14:26:11;;;;;;;;;;;6.68;-0.77;;;;;;2680329;76;20360;-93
2023/03/01 14:29:40;;;;;;;;;;;6.72;-0.25;;;;;;2678201;76;20326;-94
2023/03/01 14:33:08;;;;;;;;;;;6.65;-0.09;;;;;;2678778;76;20398;-94
2023/03/01 14:36:36;;;;;;;;;;;6.74;-0.13;;;;;;2676095;76;20362;-93
2023/03/01 14:40:04;;;;;;;;;;;6.78;-0.12;;;;;;2675885;76;20395;-94
2023/03/01 14:43:33;;;;;;;;;;;6.80;0.23;;;;;;2677054;76;20363;-93
2023/03/01 14:47:02;;;;;;;;;;;6.81;0.59;;;;;;2677848;76;20355;-94
2023/03/01 14:50:30;;;;;;;;;;;6.84;0.64;;;;;;2680424;76;20344;-94
2023/03/01 14:53:58;;;;;;;;;;;6.89;0.55;;;;;;2677639;76;20312;-94
2023/03/01 14:57:26;;;;;;;;;;;6.93;0.53;;;;;;2677762;76;20336;-93
2023/03/01 15:00:54;;;;;;;;;;;6.86;0.16;;;;;;2673727;76;20370;-93
2023/03/01 15:04:22;;;;;;;;;;;6.96;0.41;;;;;;2674313;76;20331;-93
2023/03/01 15:07:50;;;;;;;;;;;6.94;0.58;;;;;;2675527;76;20328;-92
2023/03/01 15:11:22;;;;;;;;;;;7.00;0.66;;;;;;2669650;76;20867;-91
2023/03/01 15:14:52;;;;;;;;;;;7.04;0.81;;;;;;2671436;76;20340;-92
2023/03/01 15:18:20;;;;;;;;;;;7.03;0.86;;;;;;2676230;76;20367;-93
2023/03/01 15:21:48;;;;;;;;;;;7.11;1.01;;;;;;2675416;76;20327;-93
2023/03/01 15:25:17;;;;;;;;;;;7.10;1.13;;;;;;2675668;76;20466;-93
2023/03/01 15:28:48;;;;;;;;;;;7.15;1.12;;;;;;2672936;76;20360;-91
2023/03/01 15:32:19;;;;;;;;;;;7.23;1.19;;;;;;2673131;76;20396;-92
2023/03/01 15:35:53;;;;;;;;;;;7.20;1.32;;;;;;2674073;76;20411;-93
2023/03/01 15:39:36;;;;;;;;;;;;;;;;;;;;;
2023/03/01 15:43:08;;;;;;;;;;;;;;;;;;;;;
2023/03/01 15:46:42;;;;;;;;;;;;;;;;;;;;;
2023/03/01 15:50:12;;;;;;;;;;;10.31;-3.48;;;;;;2674048;76;20393;-91
2023/03/01 15:53:37;;;;;;;;;;;8.39;-2.42;;;;;;2675021;76;20347;-92
2023/03/01 15:57:16;;;;;;;;;;;7.62;-0.56;;;;;;2675997;76;20345;-94
2023/03/01 16:00:58;;;;;;;;;;;7.31;0.38;;;;;;2674026;76;20421;-93
2023/03/01 16:04:31;;;;;;;;;;;7.16;1.17;;;;;;2674075;76;20772;-93
2023/03/01 16:07:58;;;;;;;;;;;6.97;1.68;;;;;;2671397;76;20371;-89
2023/03/01 16:11:39;;;;;;;;;;;;;;;;;;;;;
2023/03/01 16:15:02;;;;;;;;;;;6.67;2.29;;;;;;2671766;76;20372;-91
2023/03/01 16:18:38;;;;;;;;;;;6.50;2.83;;;;;;2671699;76;20326;-91
2023/03/01 16:22:14;;;;;;;;;;;6.48;3.38;;;;;;2672573;76;20370;-91
2023/03/01 16:29:29;;;;;;;;;;;6.15;4.15;;;;;;2672584;76;20399;-92
2023/03/01 16:33:06;;;;;;;;;;;;;;;;;;;;;
2023/03/01 16:36:36;;;;;;;;;;;5.87;5.18;;;;;;2677087;76;20314;-91
2023/03/01 16:40:12;;;;;;;;;;;5.74;5.56;;;;;;2672214;76;20355;-90
2023/03/01 16:44:13;;;;;;;;;;;;;;;;;;;;;
2023/03/01 16:49:01;;;;;;;;;;;;;;;;;;;;;
2023/03/01 16:52:31;;;;;;;;;;;5.00;6.48;;;;;;2677007;76;20411;-95
2023/03/01 16:56:08;;;;;;;;;;;4.69;6.75;;;;;;2674788;76;20364;-92
2023/03/01 16:59:40;;;;;;;;;;;4.52;7.26;;;;;;2674667;76;20348;-93
2023/03/01 17:03:13;;;;;;;;;;;4.37;7.77;;;;;;2673721;76;20379;-93
2023/03/01 17:06:49;;;;;;;;;;;4.28;8.11;;;;;;2674269;76;20321;-93
2023/03/01 17:10:16;;;;;;;;;;;4.14;8.18;;;;;;2676575;76;20362;-93
2023/03/01 17:13:45;;;;;;;;;;;4.01;8.34;;;;;;2674126;76;20349;-92
2023/03/01 17:17:35;;;;;;;;;;;3.92;8.61;;;;;;2674560;76;20375;-92
2023/03/01 17:20:48;;;;;;;;;;;3.90;8.96;;;;;;2673720;76;20359;-94
2023/03/01 17:24:18;;;;;;;;;;;3.83;9.21;;;;;;2673971;76;20323;-92
2023/03/01 17:27:46;;;;;;;;;;;3.71;9.23;;;;;;2673038;76;20342;-92
2023/03/01 17:31:15;;;;;;;;;;;3.64;9.53;;;;;;2674346;76;20337;-92
2023/03/01 17:34:43;;;;;;;;;;;3.64;9.99;;;;;;2673872;76;20788;-92
2023/03/01 17:38:11;;;;;;;;;;;3.64;10.09;;;;;;2674280;76;20687;-92
2023/03/01 17:41:41;;;;;;;;;;;3.59;10.01;;;;;;2673093;76;20368;-91
2023/03/01 17:45:09;;;;;;;;;;;3.52;9.99;;;;;;2673967;76;20341;-92
2023/03/01 17:48:37;;;;;;;;;;;3.52;10.33;;;;;;2674409;76;20387;-91
2023/03/01 17:52:05;;;;;;;;;;;3.53;10.40;;;;;;2674560;76;20363;-92
2023/03/01 17:55:33;;;;;;;;;;;3.50;10.50;;;;;;2674708;76;20330;-92
2023/03/01 17:59:02;;;;;;;;;;;3.48;10.50;;;;;;2674328;76;20341;-92
2023/03/01 18:02:35;;;;;;;;;;;3.43;10.42;;;;;;2674555;76;20348;-93
2023/03/01 18:06:00;;;;;;;;;;;3.34;10.36;;;;;;2672698;76;20331;-87
2023/03/01 18:09:29;;;;;;;;;;;3.27;10.30;;;;;;2670764;76;20434;-88
2023/03/01 18:12:57;;;;;;;;;;;3.24;10.48;;;;;;2666099;76;20398;-88
2023/03/01 18:16:26;;;;;;;;;;;3.29;10.84;;;;;;2664364;76;20397;-87
2023/03/01 18:19:56;;;;;;;;;;;3.32;10.85;;;;;;2661984;76;20325;-88
2023/03/01 18:23:24;;;;;;;;;;;3.30;10.74;;;;;;2666654;76;20359;-87
2023/03/01 18:26:52;;;;;;;;;;;3.29;10.87;;;;;;2663707;76;20303;-88
2023/03/01 18:30:20;;;;;;;;;;;3.25;10.83;;;;;;2662277;76;20824;-87
2023/03/01 18:33:48;;;;;;;;;;;3.26;11.11;;;;;;2662879;76;20335;-87
2023/03/01 18:37:17;;;;;;;;;;;3.25;11.04;;;;;;2664035;76;20359;-87
2023/03/01 18:40:45;;;;;;;;;;;3.19;10.92;;;;;;2661838;76;20880;-88
2023/03/01 18:44:13;;;;;;;;;;;3.10;10.74;;;;;;2665505;76;21044;-87
2023/03/01 18:47:41;;;;;;;;;;;3.00;10.72;;;;;;2665019;76;20330;-87
2023/03/01 18:51:09;;;;;;;;;;;2.93;10.82;;;;;;2663605;76;20328;-87
2023/03/01 18:54:37;;;;;;;;;;;2.87;10.91;;;;;;2663530;76;20773;-87
2023/03/01 18:58:05;;;;;;;;;;;2.81;10.93;;;;;;2666031;76;20334;-88
2023/03/01 19:01:33;;;;;;;;;;;2.76;10.88;;;;;;2664005;76;20400;-87
2023/03/01 19:05:01;;;;;;;;;;;2.74;11.03;;;;;;2662990;76;20486;-87
2023/03/01 19:08:29;;;;;;;;;;;2.68;11.07;;;;;;2665169;76;20607;-87
2023/03/01 19:12:00;;;;;;;;;;;2.66;11.30;;;;;;2670769;76;20358;-87
2023/03/01 19:15:27;;;;;;;;;;;2.68;11.49;;;;;;2665203;76;20377;-87
2023/03/01 19:18:55;;;;;;;;;;;2.67;11.63;;;;;;2662878;76;20673;-87
2023/03/01 19:22:24;;;;;;;;;;;2.70;11.80;;;;;;2664086;76;20384;-87
2023/03/01 19:25:52;;;;;;;;;;;2.74;12.22;;;;;;2666600;76;20836;-87
2023/03/01 19:29:20;;;;;;;;;;;2.73;11.98;;;;;;2662497;76;20603;-87
2023/03/01 19:32:48;;;;;;;;;;;2.68;11.97;;;;;;2665514;76;20335;-87
2023/03/01 19:36:16;;;;;;;;;;;2.64;11.96;;;;;;2664098;76;20428;-87
2023/03/01 19:39:44;;;;;;;;;;;2.64;12.10;;;;;;2664397;76;20371;-87
2023/03/01 19:43:12;;;;;;;;;;;2.61;12.19;;;;;;2665233;76;20355;-87
2023/03/01 19:46:40;;;;;;;;;;;2.59;12.36;;;;;;2665228;76;20408;-88
2023/03/01 19:50:08;;;;;;;;;;;2.55;12.39;;;;;;2663469;76;20391;-87
2023/03/01 19:53:37;;;;;;;;;;;2.51;12.31;;;;;;2666424;76;20389;-87
2023/03/01 19:57:05;;;;;;;;;;;2.49;12.34;;;;;;2665671;76;20336;-87
2023/03/01 20:00:33;;;;;;;;;;;2.45;12.30;;;;;;2664729;76;20440;-87
2023/03/01 20:04:01;;;;;;;;;;;2.40;12.48;;;;;;2667736;76;20361;-87
2023/03/01 20:07:29;;;;;;;;;;;2.41;12.79;;;;;;2665150;76;20338;-87
2023/03/01 20:10:57;;;;;;;;;;;2.37;12.60;;;;;;2663671;76;20398;-87
2023/03/01 20:14:25;;;;;;;;;;;2.30;12.48;;;;;;2667770;76;20371;-87
2023/03/01 20:17:53;;;;;;;;;;;2.26;12.26;;;;;;2670096;76;20640;-87
2023/03/01 20:21:21;;;;;;;;;;;2.20;12.20;;;;;;2667466;76;20395;-87
2023/03/01 20:24:50;;;;;;;;;;;2.11;12.04;;;;;;2662967;76;20439;-87
2023/03/01 20:28:18;;;;;;;;;;;2.09;12.02;;;;;;2662398;76;20337;-87
2023/03/01 20:31:46;;;;;;;;;;;1.98;12.07;;;;;;2662045;76;20379;-87
2023/03/01 20:35:14;;;;;;;;;;;1.92;12.01;;;;;;2660923;76;20367;-86
2023/03/01 20:38:42;;;;;;;;;;;1.91;12.39;;;;;;2660947;76;20417;-86
2023/03/01 20:42:11;;;;;;;;;;;1.86;12.58;;;;;;2663135;76;20378;-87
2023/03/01 20:45:39;;;;;;;;;;;1.91;12.92;;;;;;2665358;76;20338;-88
2023/03/01 20:49:07;;;;;;;;;;;1.93;13.26;;;;;;2662294;76;20400;-88
2023/03/01 20:52:35;;;;;;;;;;;1.96;13.25;;;;;;2662270;76;20366;-87
2023/03/01 20:56:03;;;;;;;;;;;1.97;13.17;;;;;;2660671;76;20388;-86
2023/03/01 20:59:33;;;;;;;;;;;1.95;13.33;;;;;;2661547;76;20368;-87